Terminal Aerodrome Forecast
Issued by NWS

Home | Current Version | Previous Version | Text Only | Print | Product List | Glossary On
Versions: 1 2 3 4 5 6 7 8 9 10 11 12 13 14 15 16 17 18 19 20
000
FTUS46 KMFR 291123
TAFOTH
TAF
KOTH 291123Z 2912/3012 34007KT 5SM -DZ BR OVC007
     FM291500 35008KT 6SM BR BKN008 OVC012
     FM291900 35012G20KT P6SM SCT012 OVC020
     FM300300 36007KT 6SM BR OVC012
     FM300800 35004KT 5SM BR OVC008=

USA.gov is the U.S. government's official web portal to all federal, state and local government web resources and services.